createdAt,value
2019-05-20T00:00:17.208Z,5.90
2019-05-20T00:03:22.096Z,5.57
2019-05-20T00:06:26.838Z,5.70
2019-05-20T00:09:31.676Z,5.67
2019-05-20T00:12:36.423Z,6.00
2019-05-20T00:15:41.177Z,5.43
2019-05-20T00:18:46.930Z,5.30
2019-05-20T00:21:51.707Z,5.20
2019-05-20T00:24:56.698Z,5.13
2019-05-20T00:28:01.811Z,5.03
2019-05-20T00:31:06.566Z,5.00
2019-05-20T00:34:11.353Z,5.10
2019-05-20T00:37:16.631Z,4.93
2019-05-20T00:40:21.680Z,5.30
2019-05-20T00:43:28.102Z,5.53
2019-05-20T00:46:32.831Z,5.03
2019-05-20T00:49:37.847Z,4.80
2019-05-20T00:52:42.967Z,4.77
2019-05-20T00:55:47.942Z,4.60
2019-05-20T00:58:52.685Z,4.53
2019-05-20T01:01:57.702Z,4.60
2019-05-20T01:05:02.477Z,4.50
2019-05-20T01:08:07.283Z,4.53
2019-05-20T01:11:12.180Z,4.43
2019-05-20T01:14:17.337Z,4.07
2019-05-20T01:17:22.367Z,4.27
2019-05-20T01:20:27.116Z,4.67
2019-05-20T01:23:31.834Z,4.20
2019-05-20T01:26:37.212Z,4.30
2019-05-20T01:29:41.972Z,4.40
2019-05-20T01:32:46.686Z,4.20
2019-05-20T01:35:51.824Z,4.60
2019-05-20T01:38:56.593Z,3.70
2019-05-20T01:42:01.409Z,4.80
2019-05-20T01:45:06.615Z,4.80
2019-05-20T01:48:11.610Z,5.57
2019-05-20T01:51:16.774Z,5.27
2019-05-20T01:54:21.498Z,4.80
2019-05-20T01:57:26.238Z,4.80
2019-05-20T02:00:31.686Z,4.67
2019-05-20T02:03:36.738Z,4.80
2019-05-20T02:06:41.493Z,4.80
2019-05-20T02:09:46.219Z,4.87
2019-05-20T02:12:51.246Z,4.77
2019-05-20T02:16:05.545Z,4.50
2019-05-20T02:19:10.448Z,4.90
2019-05-20T02:22:15.502Z,5.10
2019-05-20T02:25:21.320Z,5.13
2019-05-20T02:28:27.012Z,6.00
2019-05-20T02:31:31.763Z,5.13
2019-05-20T02:34:37.252Z,5.50
2019-05-20T02:37:42.052Z,5.47
2019-05-20T02:40:46.831Z,5.83
2019-05-20T02:43:51.663Z,5.77
2019-05-20T02:46:57.155Z,6.00
2019-05-20T02:50:01.957Z,5.97
2019-05-20T02:53:06.699Z,5.93
2019-05-20T02:56:11.708Z,5.80
2019-05-20T02:59:16.772Z,6.20
2019-05-20T03:02:22.119Z,6.67
2019-05-20T03:05:26.988Z,6.80
2019-05-20T03:08:31.713Z,7.33
2019-05-20T03:11:36.563Z,7.37
2019-05-20T03:14:44.268Z,7.67
2019-05-20T03:17:49.019Z,8.60
2019-05-20T03:20:55.287Z,8.23
2019-05-20T03:24:01.501Z,8.33
2019-05-20T03:27:06.181Z,9.70
2019-05-20T03:30:11.192Z,9.17
2019-05-20T03:33:15.944Z,9.43
2019-05-20T03:36:20.699Z,9.20
2019-05-20T03:39:25.430Z,9.13
2019-05-20T03:42:30.611Z,9.27
2019-05-20T03:45:35.391Z,9.30
2019-05-20T03:48:40.101Z,9.27
2019-05-20T03:51:44.855Z,9.73
2019-05-20T03:54:49.890Z,9.60
2019-05-20T03:57:54.621Z,8.27
2019-05-20T04:00:59.472Z,9.37
2019-05-20T04:04:04.299Z,9.30
2019-05-20T04:07:09.114Z,9.67
2019-05-20T04:10:14.289Z,9.20
2019-05-20T04:13:19.351Z,10.03
2019-05-20T04:16:24.421Z,8.57
2019-05-20T04:19:29.907Z,8.03
2019-05-20T04:22:34.646Z,7.80
2019-05-20T04:25:39.366Z,7.20
2019-05-20T04:28:44.115Z,6.93
2019-05-20T04:31:49.949Z,6.67
2019-05-20T04:34:54.678Z,6.70
2019-05-20T04:37:59.741Z,6.10
2019-05-20T04:41:04.768Z,6.20
2019-05-20T04:44:09.600Z,6.13
2019-05-20T04:47:14.386Z,6.20
2019-05-20T04:50:19.296Z,6.53
2019-05-20T04:53:24.343Z,6.60
2019-05-20T04:56:29.618Z,6.13
2019-05-20T04:59:34.787Z,6.70
2019-05-20T05:02:43.439Z,6.87
2019-05-20T05:05:46.740Z,6.33
2019-05-20T05:08:51.659Z,6.77
2019-05-20T05:11:57.544Z,7.40
2019-05-20T05:15:05.815Z,6.93
2019-05-20T05:18:09.895Z,7.80
2019-05-20T05:21:14.847Z,7.40
2019-05-20T05:24:19.772Z,7.30
2019-05-20T05:27:24.710Z,7.60
2019-05-20T05:30:29.717Z,7.70
2019-05-20T05:33:34.559Z,7.83
2019-05-20T05:36:39.702Z,8.30
2019-05-20T05:39:44.913Z,9.53
2019-05-20T05:42:49.968Z,9.03
2019-05-20T05:45:54.744Z,9.63
2019-05-20T05:49:00.264Z,9.00
2019-05-20T05:52:05.174Z,9.70
2019-05-20T05:55:10.122Z,12.17
2019-05-20T05:58:16.665Z,13.13
2019-05-20T06:01:21.628Z,13.33
2019-05-20T06:04:26.413Z,13.50
2019-05-20T06:07:31.269Z,14.37
2019-05-20T06:10:36.217Z,14.23
2019-05-20T06:13:41.150Z,14.40
2019-05-20T06:16:46.255Z,14.23
2019-05-20T06:19:51.361Z,15.07
2019-05-20T06:22:56.563Z,14.33
2019-05-20T06:26:01.357Z,14.73
2019-05-20T06:29:06.218Z,15.60
2019-05-20T06:32:10.987Z,14.97
2019-05-20T06:35:17.329Z,13.70
2019-05-20T06:38:40.399Z,14.20
2019-05-20T06:41:45.211Z,14.43
2019-05-20T06:44:53.157Z,14.17
2019-05-20T06:47:56.944Z,14.53
2019-05-20T06:51:01.741Z,14.73
2019-05-20T06:54:07.636Z,15.23
2019-05-20T06:57:12.842Z,15.13
2019-05-20T07:00:31.704Z,14.70
2019-05-20T07:03:36.796Z,16.53
2019-05-20T07:06:46.426Z,17.00
2019-05-20T07:09:48.189Z,16.70
2019-05-20T07:12:52.968Z,18.27
2019-05-20T07:15:58.020Z,18.07
2019-05-20T07:19:02.783Z,19.23
2019-05-20T07:22:07.565Z,20.93
2019-05-20T07:25:12.818Z,21.57
2019-05-20T07:28:17.684Z,21.87
2019-05-20T07:31:22.433Z,24.60
2019-05-20T07:34:27.786Z,23.80
2019-05-20T07:37:32.911Z,23.67
2019-05-20T07:40:37.766Z,22.97
2019-05-20T07:43:42.902Z,23.90
2019-05-20T07:46:48.147Z,23.53
2019-05-20T07:49:53.079Z,24.33
2019-05-20T07:53:00.612Z,23.93
2019-05-20T07:56:09.058Z,24.30
2019-05-20T07:59:17.194Z,24.07
2019-05-20T08:02:22.120Z,24.50
2019-05-20T08:05:26.892Z,23.93
2019-05-20T08:08:32.597Z,24.43
2019-05-20T08:11:37.541Z,23.87
2019-05-20T08:14:42.550Z,23.10
2019-05-20T08:17:47.723Z,24.70
2019-05-20T08:20:52.724Z,24.30
2019-05-20T08:23:57.568Z,21.80
2019-05-20T08:27:02.432Z,24.97
2019-05-20T08:30:08.252Z,25.10
2019-05-20T08:33:13.078Z,24.90
2019-05-20T08:36:18.221Z,24.03
2019-05-20T08:39:22.961Z,23.13
2019-05-20T08:42:27.762Z,25.83
2019-05-20T08:45:32.580Z,24.77
2019-05-20T08:48:37.662Z,24.57
2019-05-20T08:51:42.427Z,24.93
2019-05-20T08:54:47.543Z,25.80
2019-05-20T08:57:52.284Z,25.77
2019-05-20T09:00:57.393Z,26.00
2019-05-20T09:04:02.382Z,28.03
2019-05-20T09:07:07.223Z,27.50
2019-05-20T09:10:12.828Z,27.97
2019-05-20T09:13:17.967Z,27.50
2019-05-20T09:16:22.703Z,27.20
2019-05-20T09:19:27.471Z,27.90
2019-05-20T09:22:32.314Z,27.80
2019-05-20T09:25:37.064Z,29.40
2019-05-20T09:28:41.811Z,28.80
2019-05-20T09:31:47.679Z,26.50
2019-05-20T09:34:53.475Z,29.53
2019-05-20T09:37:58.243Z,27.33
2019-05-20T09:41:03.245Z,27.07
2019-05-20T09:44:08.270Z,26.73
2019-05-20T09:47:13.279Z,26.50
2019-05-20T09:50:19.084Z,26.47
2019-05-20T09:53:24.181Z,25.93
2019-05-20T09:56:30.268Z,25.13
2019-05-20T09:59:43.205Z,25.27
2019-05-20T10:02:41.663Z,25.00
2019-05-20T10:05:46.466Z,24.70
2019-05-20T10:08:51.680Z,23.40
2019-05-20T10:11:56.513Z,23.43
2019-05-20T10:15:01.488Z,24.27
2019-05-20T10:18:06.458Z,21.80
2019-05-20T10:21:11.199Z,24.37
2019-05-20T10:24:15.948Z,24.23
2019-05-20T10:27:21.348Z,23.63
2019-05-20T10:30:26.488Z,23.37
2019-05-20T10:33:36.933Z,22.60
2019-05-20T10:36:41.137Z,21.50
2019-05-20T10:39:46.380Z,23.57
2019-05-20T10:42:51.231Z,22.67
2019-05-20T10:45:56.385Z,24.80
2019-05-20T10:49:01.637Z,23.23
2019-05-20T10:52:06.459Z,21.83
2019-05-20T10:55:13.127Z,22.37
2019-05-20T10:58:17.894Z,23.87
2019-05-20T11:01:23.042Z,24.47
2019-05-20T11:04:27.835Z,23.73
2019-05-20T11:07:32.976Z,23.23
2019-05-20T11:10:37.727Z,22.27
2019-05-20T11:13:44.410Z,23.17
2019-05-20T11:16:49.463Z,23.10
2019-05-20T11:19:54.516Z,24.17
2019-05-20T11:23:01.190Z,21.17
2019-05-20T11:26:05.734Z,21.97
2019-05-20T11:29:10.771Z,21.40
2019-05-20T11:32:15.563Z,21.03
2019-05-20T11:35:20.345Z,21.47
2019-05-20T11:38:25.396Z,20.80
2019-05-20T11:41:52.148Z,22.90
2019-05-20T11:44:37.453Z,21.70
2019-05-20T11:47:43.724Z,23.20
2019-05-20T11:50:48.788Z,21.53
2019-05-20T11:53:53.938Z,22.30
2019-05-20T11:56:58.699Z,21.83
2019-05-20T12:00:04.117Z,23.40
2019-05-20T12:03:08.877Z,23.93
2019-05-20T12:06:13.658Z,22.37
2019-05-20T12:09:18.695Z,21.50
2019-05-20T12:12:23.440Z,22.03
2019-05-20T12:15:28.206Z,21.67
2019-05-20T12:18:33.284Z,20.70
2019-05-20T12:21:38.666Z,20.70
2019-05-20T12:24:43.452Z,21.57
2019-05-20T12:27:48.942Z,21.63
2019-05-20T12:30:53.975Z,22.90
2019-05-20T12:33:58.989Z,22.37
2019-05-20T12:37:03.773Z,22.57
2019-05-20T12:40:09.195Z,21.90
2019-05-20T12:43:13.979Z,21.37
2019-05-20T12:46:19.120Z,21.43
2019-05-20T12:49:24.229Z,18.77
2019-05-20T12:52:29.147Z,19.17
2019-05-20T12:55:34.005Z,19.23
2019-05-20T12:58:39.114Z,18.50
2019-05-20T13:01:43.898Z,18.53
2019-05-20T13:04:49.657Z,19.50
2019-05-20T13:07:54.720Z,18.33
2019-05-20T13:10:59.784Z,18.60
2019-05-20T13:14:04.824Z,16.97
2019-05-20T13:17:09.651Z,18.27
2019-05-20T13:20:14.885Z,15.53
2019-05-20T13:23:19.626Z,16.50
2019-05-20T13:26:24.795Z,15.97
2019-05-20T13:29:29.648Z,17.27
2019-05-20T13:32:34.452Z,16.23
2019-05-20T13:35:39.633Z,16.93
2019-05-20T13:38:44.506Z,15.77
2019-05-20T13:41:49.691Z,17.53
2019-05-20T13:44:54.573Z,17.17
2019-05-20T13:47:59.339Z,16.27
2019-05-20T13:51:04.280Z,16.80
2019-05-20T13:54:09.260Z,13.70
2019-05-20T13:57:14.096Z,15.13
2019-05-20T14:00:20.017Z,15.20
2019-05-20T14:03:24.751Z,14.97
2019-05-20T14:06:29.856Z,15.37
2019-05-20T14:09:34.570Z,14.90
2019-05-20T14:12:39.645Z,15.77
2019-05-20T14:15:44.379Z,15.67
2019-05-20T14:18:49.477Z,15.07
2019-05-20T14:21:54.625Z,16.50
2019-05-20T14:25:00.233Z,15.10
2019-05-20T14:28:05.177Z,15.50
2019-05-20T14:31:10.400Z,17.33
2019-05-20T14:34:15.563Z,18.30
2019-05-20T14:37:20.608Z,17.43
2019-05-20T14:40:25.702Z,16.20
2019-05-20T14:43:30.586Z,17.10
2019-05-20T14:46:35.612Z,16.00
2019-05-20T14:49:40.383Z,15.80
2019-05-20T14:52:45.121Z,15.17
2019-05-20T14:55:49.902Z,17.00
2019-05-20T14:58:55.846Z,16.83
2019-05-20T15:02:01.999Z,17.33
2019-05-20T15:05:07.555Z,17.33
2019-05-20T15:08:13.038Z,19.77
2019-05-20T15:11:17.901Z,20.93
2019-05-20T15:14:22.675Z,20.47
2019-05-20T15:17:28.908Z,21.40
2019-05-20T15:20:33.750Z,21.30
2019-05-20T15:23:38.479Z,21.90
2019-05-20T15:26:43.682Z,21.77
2019-05-20T15:29:49.893Z,21.23
2019-05-20T15:32:55.143Z,21.90
2019-05-20T15:36:00.293Z,21.00
2019-05-20T15:39:06.698Z,20.57
2019-05-20T15:42:11.532Z,21.07
2019-05-20T15:45:18.281Z,21.67
2019-05-20T15:48:23.419Z,21.30
2019-05-20T15:51:28.482Z,20.87
2019-05-20T15:54:33.546Z,22.90
2019-05-20T15:57:38.300Z,20.77
2019-05-20T16:00:43.073Z,22.47
2019-05-20T16:03:51.371Z,23.03
2019-05-20T16:06:54.473Z,24.43
2019-05-20T16:09:59.222Z,23.77
2019-05-20T16:13:04.092Z,23.37
2019-05-20T16:16:12.824Z,24.47
2019-05-20T16:19:15.807Z,26.13
2019-05-20T16:22:20.735Z,26.73
2019-05-20T16:25:25.526Z,26.13
2019-05-20T16:28:30.627Z,26.87
2019-05-20T16:31:35.524Z,27.30
2019-05-20T16:34:40.681Z,27.53
2019-05-20T16:37:45.600Z,28.07
2019-05-20T16:40:50.446Z,27.67
2019-05-20T16:43:55.863Z,28.37
2019-05-20T16:47:01.302Z,28.90
2019-05-20T16:50:08.300Z,29.07
2019-05-20T16:53:13.523Z,29.10
2019-05-20T16:56:18.649Z,30.33
2019-05-20T16:59:23.953Z,31.13
2019-05-20T17:02:31.625Z,30.63
2019-05-20T17:05:36.702Z,29.63
2019-05-20T17:08:41.919Z,29.00
2019-05-20T17:11:46.799Z,28.67
2019-05-20T17:14:52.030Z,27.63
2019-05-20T17:17:56.827Z,25.67
2019-05-20T17:21:01.973Z,26.70
2019-05-20T17:24:06.906Z,26.73
2019-05-20T17:27:12.274Z,27.93
2019-05-20T17:30:17.544Z,27.50
2019-05-20T17:33:22.774Z,27.77
2019-05-20T17:36:27.573Z,26.60
2019-05-20T17:39:32.550Z,27.20
2019-05-20T17:42:37.872Z,26.87
2019-05-20T17:45:43.095Z,26.00
2019-05-20T17:48:48.007Z,27.50
2019-05-20T17:51:52.826Z,26.77
2019-05-20T17:54:57.609Z,26.70
2019-05-20T17:58:02.521Z,25.80
2019-05-20T18:01:15.325Z,27.53
2019-05-20T18:04:14.452Z,26.63
2019-05-20T18:07:19.357Z,28.00
2019-05-20T18:10:25.404Z,26.17
2019-05-20T18:13:31.600Z,26.93
2019-05-20T18:16:36.729Z,28.50
2019-05-20T18:19:42.580Z,28.37
2019-05-20T18:22:47.796Z,30.83
2019-05-20T18:25:52.886Z,29.70
2019-05-20T18:28:58.466Z,29.50
2019-05-20T18:32:03.283Z,31.10
2019-05-20T18:35:08.690Z,29.10
2019-05-20T18:38:14.081Z,29.10
2019-05-20T18:41:20.319Z,28.20
2019-05-20T18:44:25.508Z,28.67
2019-05-20T18:47:30.595Z,28.60
2019-05-20T18:50:35.382Z,26.80
2019-05-20T18:53:40.177Z,25.87
2019-05-20T18:56:45.367Z,26.50
2019-05-20T18:59:50.173Z,27.53
2019-05-20T19:02:55.032Z,26.70
2019-05-20T19:06:00.123Z,27.77
2019-05-20T19:09:06.443Z,24.93
2019-05-20T19:12:11.978Z,26.37
2019-05-20T19:15:17.663Z,25.60
2019-05-20T19:18:22.479Z,26.07
2019-05-20T19:21:27.270Z,26.77
2019-05-20T19:24:32.563Z,26.73
2019-05-20T19:27:38.792Z,27.70
2019-05-20T19:30:43.834Z,26.47
2019-05-20T19:33:48.935Z,26.70
2019-05-20T19:36:54.068Z,27.47
2019-05-20T19:39:58.913Z,27.87
2019-05-20T19:43:03.699Z,27.53
2019-05-20T19:46:08.966Z,28.50
2019-05-20T19:49:13.991Z,28.83
2019-05-20T19:52:18.929Z,30.00
2019-05-20T19:55:23.994Z,30.43
2019-05-20T19:58:28.996Z,31.33
2019-05-20T20:01:34.273Z,33.07
2019-05-20T20:04:39.733Z,33.57
2019-05-20T20:07:46.031Z,33.37
2019-05-20T20:10:50.980Z,33.13
2019-05-20T20:13:55.920Z,33.70
2019-05-20T20:17:00.744Z,33.50
2019-05-20T20:20:05.902Z,33.20
2019-05-20T20:23:10.657Z,32.20
2019-05-20T20:26:15.755Z,34.00
2019-05-20T20:29:20.503Z,32.23
2019-05-20T20:32:37.268Z,32.83
2019-05-20T20:35:38.115Z,32.90
2019-05-20T20:38:39.172Z,33.30
2019-05-20T20:41:44.419Z,32.60
2019-05-20T20:44:49.541Z,32.57
2019-05-20T20:47:54.280Z,32.10
2019-05-20T20:50:59.047Z,31.27
2019-05-20T20:54:04.373Z,30.17
2019-05-20T20:57:09.339Z,31.33
2019-05-20T21:00:14.812Z,29.57
2019-05-20T21:03:22.432Z,30.97
2019-05-20T21:06:27.489Z,31.07
2019-05-20T21:09:32.615Z,33.70
2019-05-20T21:12:37.504Z,33.30
2019-05-20T21:15:42.555Z,31.20
2019-05-20T21:18:47.359Z,30.50
2019-05-20T21:21:52.350Z,31.63
2019-05-20T21:24:57.185Z,31.50
2019-05-20T21:28:01.954Z,30.60
2019-05-20T21:31:06.940Z,29.93
2019-05-20T21:34:11.951Z,31.10
2019-05-20T21:37:16.741Z,31.07
2019-05-20T21:40:21.579Z,28.97
2019-05-20T21:43:26.758Z,30.73
2019-05-20T21:46:31.911Z,29.23
2019-05-20T21:49:36.673Z,31.43
2019-05-20T21:52:42.031Z,30.63
2019-05-20T21:55:47.379Z,30.87
2019-05-20T21:58:52.211Z,30.37
2019-05-20T22:01:57.279Z,31.03
2019-05-20T22:05:02.733Z,30.40
2019-05-20T22:08:09.399Z,33.13
2019-05-20T22:11:14.271Z,31.90
2019-05-20T22:14:20.172Z,31.70
2019-05-20T22:17:25.343Z,29.53
2019-05-20T22:20:30.700Z,30.13
2019-05-20T22:24:00.868Z,31.83
2019-05-20T22:27:06.601Z,31.27
2019-05-20T22:30:11.869Z,30.23
2019-05-20T22:33:16.624Z,33.13
2019-05-20T22:36:21.581Z,31.93
2019-05-20T22:39:27.392Z,31.90
2019-05-20T22:42:32.158Z,33.73
2019-05-20T22:45:36.987Z,32.73
2019-05-20T22:48:41.866Z,32.77
2019-05-20T22:51:46.606Z,32.50
2019-05-20T22:54:51.457Z,31.40
2019-05-20T22:57:56.266Z,34.40
2019-05-20T23:01:01.187Z,34.10
2019-05-20T23:04:05.918Z,32.93
2019-05-20T23:07:10.759Z,33.33
2019-05-20T23:10:16.251Z,35.80
2019-05-20T23:13:21.670Z,33.43
2019-05-20T23:16:26.430Z,32.77
2019-05-20T23:19:31.243Z,33.93
2019-05-20T23:22:36.340Z,32.87
2019-05-20T23:25:41.144Z,33.67
2019-05-20T23:28:45.881Z,31.73
2019-05-20T23:31:50.654Z,34.77
2019-05-20T23:34:55.716Z,34.70
2019-05-20T23:38:00.481Z,34.10
2019-05-20T23:41:05.316Z,31.60
2019-05-20T23:44:10.099Z,32.70
2019-05-20T23:47:15.137Z,31.00
2019-05-20T23:50:20.086Z,32.83
2019-05-20T23:53:24.855Z,30.27
2019-05-20T23:56:29.611Z,31.73
2019-05-20T23:59:34.373Z,30.67
